Flight Track Log - Related Links

Times and Time Zones

All times are in EDT time to prevent confusion due to time zone crossing. See the N682RW flight status page for this flight to view local times or setup timezone preferences in your user account.

Time Position Orientation Groundspeed Altitude Reporting Facility
EDT Latitude Longitude Course Direction KTS MPH feet Rate Location/Type
12:17PM 49.1667 -123.1167 182° South 210 242 2,700  Level Vancouver Center
12:18PM 49.1333 -123.0167 117° Southeast 250 288 6,600 3,750 Climbing Vancouver Center
12:19PM 49.0500 -123.0167 180° South 280 322 10,200 2,200 Climbing Vancouver Center
12:20PM 48.9667 -123.0333 187° South 360 414 11,000 400 Climbing Vancouver Center
12:21PM 48.8664 -123.0058 170° South  Level Estimated
12:21PM 48.8667 -123.0167 174° South 370 426 11,000  Level Vancouver Center
12:22PM 48.7795 -123.0099 182° South  Level FlightAware Approximate
12:22PM 48.7500 -122.9833 169° South 370 426 11,000  Level Vancouver Center
12:23PM 48.6667 -122.9667 172° South 370 426 11,000  Level Vancouver Center
12:24PM 48.5667 -122.9500 174° South 370 426 11,000  Level Vancouver Center
12:24PM 48.5444 -122.9497 180° South 368 423 11,000  Level Seattle Center
12:25PM 48.4439 -122.9281 172° South 368 423 11,000  Level Seattle Center
12:26PM 48.3425 -122.9075 172° South 371 427 11,000  Level Seattle Center
12:27PM 48.2428 -122.8856 172° South 368 423 11,000  Level Seattle Center
12:28PM 48.1453 -122.8661 172° South 358 412 11,000  Level Seattle Center
12:29PM 48.0908 -122.8561 173° South 300 345 11,000  Level Seattle Center
12:29PM 48.0444 -122.8450 171° South 313 360 11,000  Level Seattle Center
12:30PM 48.0067 -122.8292 164° South 319 367 11,000  Level Seattle Center
12:30PM 47.9692 -122.7836 141° Southeast 316 364 11,000 -100 Level Seattle Center
12:31PM 47.9408 -122.7331 130° Southeast 327 376 10,900 -689 Descending Seattle Center
12:31PM 47.9142 -122.6806 127° Southeast 319 367 10,300 -1,279 Descending Seattle Center
12:32PM 47.8886 -122.6297 127° Southeast 315 362 9,600 -1,672 Descending Seattle Center
12:32PM 47.8617 -122.5822 130° Southeast 305 351 8,600 -1,377 Descending Seattle Center
12:33PM 47.8311 -122.5592 153° Southeast 260 299 8,200 -984 Descending Seattle Center
12:33PM 47.7933 -122.5289 152° Southeast 251 289 7,600 -1,082 Descending Seattle Center
12:34PM 47.7692 -122.5075 149° Southeast 222 255 7,100 -1,180 Descending Seattle Center
12:34PM 47.7417 -122.4825 149° Southeast 221 254 6,400 -1,500 Descending Seattle Center
12:35PM 47.7208 -122.4650 151° Southeast 203 234 5,600 -1,279 Descending Seattle Center
12:35PM 47.6956 -122.4439 151° Southeast 192 221 5,100 -1,377 Descending Seattle Center
12:36PM 47.6786 -122.4292 150° Southeast 156 180 4,200 -1,869 Descending Seattle Center
12:36PM 47.6578 -122.4119 151° Southeast 160 184 3,200 -1,770 Descending Seattle Center
12:37PM 47.6417 -122.3969 148° Southeast 153 176 2,400 -1,180 Descending Seattle Center
12:37PM 47.6211 -122.3811 153° Southeast 139 160 2,000 -590 Descending Seattle Center
12:38PM 47.6114 -122.3742 154° Southeast 121 139 1,800 -700 Descending Seattle Center
12:38PM 47.5933 -122.3567 147° Southeast 120 138 1,300 -716 Descending Seattle Center
12:39PM 47.5789 -122.3425 147° Southeast 128 147 1,000 -689 Descending Seattle Center
12:39PM 47.5653 -122.3325 154° Southeast 118 136 600 -627 Descending Seattle Center
12:40PM 47.5494 -122.3228 157° South 123 142 300 -492 Descending Seattle Center
12:40PM 47.5406 -122.3119 141° Southeast 118 136 100 -545 Descending Seattle Center

Login

Don't have an account? Register now (free) for customized features, flight alerts, and more!